ENBN

Details ICAO ENBN (BNN)
Name Bronnoysund
Region Norway
Timezone Unknown
Plans Departing 74
Arriving 68
Stats Elevation 24 ft / 7 m (AMSL)
Location 65.459100° 12.213500°
Runways 1
Magnetic Variation 5.102° E
Sunrise 2021-10-21 06:26:06 UTC / 2021-10-21 06:26:06 Local
Sunset 2021-10-21 15:27:43 UTC / 2021-10-21 15:27:43 Local
Advertisement - Login to hide

Runways

ID Width Length Bearing (true/mag) Surface Threshold Overrun Markings Lighting
04 100 ft / 30 m 4,702 ft / 1,433 m 38.93° / 33.83° ASPHALT 387 ft / 118 m 0 ft / 0 m APP EDGE THRESHOLD MALS
22 100 ft / 30 m 4,702 ft / 1,433 m 218.95° / 213.85° ASPHALT 387 ft / 118 m 0 ft / 0 m APP EDGE THRESHOLD MALS

Approach Navaids

Runway Type Ident Frequency Range Bearing (true/mag) Slope Elevation
04 LOC-LOC BY 111.15 MHz 18 nm / 33 km 39.59° / 34.49° - 69 ft / 21 m (AMSL)

Map

Weather


0- 5 10 15 20 25 30 35+ Temperature / °C

Clouds and Precipitation
Forecast for 2021-10-21 12:00 UTC. Updated 5 hours ago

Ground ~20,000 ft ~40,000 ft Winds

METAR

ENBN 211420Z 12019G30KT 9999 VCSH SCT030 06/01 Q0968

TAF

Not found

Frequencies

Tower 119.60 MHz AFIS
Warning: Do not use this data for real-world aviation or navigation. No guarantee of current accuracy is given.